RJOMRJOB

Guest
Details From RJOM - MATSUYAMA
To RJOB - OKAYAMA
Flight Number -
Tags generated
Created
Modified
Stats Distance 80 nm / 149 km
Max Altitude 2,000 ft / 610 m
Waypoints 3
Social Downloads 0
Likes 0
Share VATSIM

Download

Looking for another format? Having issues loading an existing format? Contact us
Advertisement - Login to hide

Notes

Basic altitude profile: - Ascent Rate: 2500ft/min - Ascent Speed: 250kts - Cruise Altitude: 35000ft - Cruise Speed: 420kts - Descent Rate: 1500ft/min - Descent Speed: 250kts Options: - Use NATs: yes - Use PACOTS: yes - Use low airways: yes - Use high airways: yes

Route

RJOM SOUJA RJOB

ID Type Via Altitude Latitude Longitude Leg Dist Tot Dist Heading (true) Name
O RJOM APT - 0 ft / 0 m 33.82726˚ 132.69963˚ - 0 nm - MATSUYAMA
SOUJA FIX - 2,000 ft / 610 m 34.62740˚ 133.73958˚ 70 nm 70 nm 47° / 47° -
O RJOB APT - 0 ft / 0 m 34.75694˚ 133.85543˚ 9 nm 80 nm 36° / 36° OKAYAMA

Altitude Profile

Advertisement - Login to hide

RJOM

Details ICAO RJOM (MYJ)
Name MATSUYAMA
Region Japan
Timezone Asia/Tokyo (UTC+9.0)
Stats Elevation 25 ft / 8 m (AMSL)
Location 33.827257° 132.699631°
Runways 1
Magnetic Variation 7.513° W

METAR

RJOM 122200Z 28012KT 9999 FEW035 04/M06 Q1024

Decode

TAF

TAF RJOM 121707Z 1218/1400 29013KT 9999 FEW020 BKN060 BECMG 1318/1321 01010KT

Decode

Departure Runways

ID Width Length Bearing (true) Bearing (mag) Surface Threshold Offset Overrun Length
14 150 ft / 46 m 8,203 ft / 2,500 m 130.67° 138.18° Asphalt 0 ft / 0 m 206 ft / 63 m
32 150 ft / 46 m 8,203 ft / 2,500 m 310.68° 318.19° Asphalt 0 ft / 0 m 195 ft / 59 m

RJOB

Details ICAO RJOB (OKJ)
Name OKAYAMA
Region Japan
Timezone Asia/Tokyo (UTC+9.0)
Stats Elevation 806 ft / 246 m (AMSL)
Location 34.756937° 133.855435°
Runways 1
Magnetic Variation 7.763° W

METAR

RJOB 122200Z 25007KT 9999 FEW025 M03/M05 Q1021

Decode

TAF

TAF RJOB 121706Z 1218/1400 28010KT 9999 FEW025 BKN035

Decode

Destination Runways

ID Width Length Bearing (true) Bearing (mag) Surface Threshold Offset Overrun Length
07 150 ft / 46 m 9,835 ft / 2,998 m 59.10° 66.86° Asphalt 0 ft / 0 m 200 ft / 61 m
25 150 ft / 46 m 9,835 ft / 2,998 m 239.12° 246.88° Asphalt 0 ft / 0 m 200 ft / 61 m

Approach Navaids

Runway Type Ident Frequency Range Bearing (true) Bearing (mag) Slope Elevation
07 Localiser IOY 110.30 MHz 18 nm / 33 km 59.12° 66.89° - 806 ft / 246 m (AMSL)
07 Glidescope IOY 110.30 MHz 10 nm / 19 km 59.11° 66.87° 3.00° 806 ft / 246 m (AMSL)